sensor_id;sensor_type;location;lat;lon;timestamp;pressure;altitude;pressure_sealevel;temperature;humidity
64139;BME280;50435;43.700;-79.318;2023-03-20T00:00:45;100455.50;;;0.52;43.71
64139;BME280;50435;43.700;-79.318;2023-03-20T00:03:13;100455.11;;;0.31;43.08
64139;BME280;50435;43.700;-79.318;2023-03-20T00:05:41;100459.66;;;0.68;43.35
64139;BME280;50435;43.700;-79.318;2023-03-20T00:08:09;100453.74;;;0.06;43.54
64139;BME280;50435;43.700;-79.318;2023-03-20T00:10:39;100453.29;;;0.61;43.87
64139;BME280;50435;43.700;-79.318;2023-03-20T00:13:12;100451.20;;;0.16;43.25
64139;BME280;50435;43.700;-79.318;2023-03-20T00:15:42;100457.80;;;0.53;43.44
64139;BME280;50435;43.700;-79.318;2023-03-20T00:18:14;100455.28;;;0.08;43.50
64139;BME280;50435;43.700;-79.318;2023-03-20T00:20:41;100451.81;;;0.54;43.44
64139;BME280;50435;43.700;-79.318;2023-03-20T00:23:09;100451.99;;;-0.18;43.73
64139;BME280;50435;43.700;-79.318;2023-03-20T00:25:37;100453.20;;;0.42;43.87
64139;BME280;50435;43.700;-79.318;2023-03-20T00:28:27;100453.29;;;0.12;43.44
64139;BME280;50435;43.700;-79.318;2023-03-20T00:30:56;100454.97;;;-0.02;43.77
64139;BME280;50435;43.700;-79.318;2023-03-20T00:33:23;100452.88;;;-0.03;43.80
64139;BME280;50435;43.700;-79.318;2023-03-20T00:35:51;100454.75;;;0.56;43.35
64139;BME280;50435;43.700;-79.318;2023-03-20T00:38:18;100459.32;;;0.56;43.62
64139;BME280;50435;43.700;-79.318;2023-03-20T00:40:45;100460.26;;;0.63;43.28
64139;BME280;50435;43.700;-79.318;2023-03-20T00:43:13;100457.56;;;0.20;43.55
64139;BME280;50435;43.700;-79.318;2023-03-20T00:45:42;100455.75;;;0.49;43.67
64139;BME280;50435;43.700;-79.318;2023-03-20T00:48:13;100464.11;;;0.39;43.18
64139;BME280;50435;43.700;-79.318;2023-03-20T00:50:42;100465.34;;;0.83;43.75
64139;BME280;50435;43.700;-79.318;2023-03-20T00:53:11;100462.18;;;0.33;42.93
64139;BME280;50435;43.700;-79.318;2023-03-20T00:55:39;100457.12;;;0.48;43.27
64139;BME280;50435;43.700;-79.318;2023-03-20T00:58:08;100456.61;;;0.13;42.96
64139;BME280;50435;43.700;-79.318;2023-03-20T01:00:40;100457.07;;;0.64;43.16
64139;BME280;50435;43.700;-79.318;2023-03-20T01:03:14;100460.96;;;0.10;43.16
64139;BME280;50435;43.700;-79.318;2023-03-20T01:05:42;100459.31;;;0.49;43.20
64139;BME280;50435;43.700;-79.318;2023-03-20T01:08:14;100462.19;;;0.24;43.23
64139;BME280;50435;43.700;-79.318;2023-03-20T01:10:43;100458.55;;;0.40;43.09
64139;BME280;50435;43.700;-79.318;2023-03-20T01:13:19;100461.46;;;0.05;43.05
64139;BME280;50435;43.700;-79.318;2023-03-20T01:15:48;100462.91;;;0.62;43.29
64139;BME280;50435;43.700;-79.318;2023-03-20T01:18:21;100463.56;;;0.44;43.25
64139;BME280;50435;43.700;-79.318;2023-03-20T01:20:49;100461.13;;;0.54;43.23
64139;BME280;50435;43.700;-79.318;2023-03-20T01:23:17;100464.10;;;0.40;43.37
64139;BME280;50435;43.700;-79.318;2023-03-20T01:25:44;100466.72;;;0.68;43.55
64139;BME280;50435;43.700;-79.318;2023-03-20T01:28:14;100471.14;;;0.59;43.71
64139;BME280;50435;43.700;-79.318;2023-03-20T01:30:43;100468.99;;;0.59;43.59
64139;BME280;50435;43.700;-79.318;2023-03-20T01:33:14;100468.83;;;-0.08;43.58
64139;BME280;50435;43.700;-79.318;2023-03-20T01:35:43;100468.91;;;0.47;43.59
64139;BME280;50435;43.700;-79.318;2023-03-20T01:38:14;100475.91;;;0.03;43.95
64139;BME280;50435;43.700;-79.318;2023-03-20T01:40:51;100470.74;;;0.38;44.11
64139;BME280;50435;43.700;-79.318;2023-03-20T01:43:22;100468.38;;;0.51;44.88
64139;BME280;50435;43.700;-79.318;2023-03-20T01:45:56;100466.15;;;0.44;44.37
64139;BME280;50435;43.700;-79.318;2023-03-20T01:48:34;100472.07;;;0.27;44.56
64139;BME280;50435;43.700;-79.318;2023-03-20T01:51:02;100461.56;;;-0.84;44.30
64139;BME280;50435;43.700;-79.318;2023-03-20T01:53:29;100466.00;;;0.17;44.14
64139;BME280;50435;43.700;-79.318;2023-03-20T01:55:59;100465.50;;;-0.32;44.16
64139;BME280;50435;43.700;-79.318;2023-03-20T01:58:31;100470.79;;;0.48;44.49
64139;BME280;50435;43.700;-79.318;2023-03-20T02:01:03;100464.79;;;-0.97;44.42
64139;BME280;50435;43.700;-79.318;2023-03-20T02:03:30;100464.59;;;0.44;44.55
64139;BME280;50435;43.700;-79.318;2023-03-20T02:05:59;100466.25;;;-0.40;44.53
64139;BME280;50435;43.700;-79.318;2023-03-20T02:08:28;100465.30;;;0.65;44.43
64139;BME280;50435;43.700;-79.318;2023-03-20T02:10:58;100465.81;;;-0.13;44.34
64139;BME280;50435;43.700;-79.318;2023-03-20T02:13:29;100461.59;;;0.12;44.78
64139;BME280;50435;43.700;-79.318;2023-03-20T02:16:01;100462.53;;;0.01;45.13
64139;BME280;50435;43.700;-79.318;2023-03-20T02:18:29;100460.41;;;0.06;45.33
64139;BME280;50435;43.700;-79.318;2023-03-20T02:21:21;100453.68;;;-0.47;44.58
64139;BME280;50435;43.700;-79.318;2023-03-20T02:24:14;100452.11;;;0.03;45.24
64139;BME280;50435;43.700;-79.318;2023-03-20T02:27:00;100449.89;;;0.31;44.63
64139;BME280;50435;43.700;-79.318;2023-03-20T02:29:48;100449.73;;;0.04;44.86
64139;BME280;50435;43.700;-79.318;2023-03-20T02:34:55;100448.67;;;0.65;44.85
64139;BME280;50435;43.700;-79.318;2023-03-20T02:37:50;100454.92;;;0.29;44.67
64139;BME280;50435;43.700;-79.318;2023-03-20T02:40:27;100454.35;;;-0.09;44.83
64139;BME280;50435;43.700;-79.318;2023-03-20T02:43:03;100450.99;;;-0.87;44.74
64139;BME280;50435;43.700;-79.318;2023-03-20T02:45:44;100454.96;;;0.30;44.77
64139;BME280;50435;43.700;-79.318;2023-03-20T02:48:23;100459.63;;;-0.19;45.04
64139;BME280;50435;43.700;-79.318;2023-03-20T02:51:00;100451.08;;;0.65;44.78
64139;BME280;50435;43.700;-79.318;2023-03-20T02:53:38;100454.40;;;0.22;45.24
64139;BME280;50435;43.700;-79.318;2023-03-20T02:56:13;100455.99;;;0.32;45.87
64139;BME280;50435;43.700;-79.318;2023-03-20T02:58:48;100455.27;;;-0.11;46.03
64139;BME280;50435;43.700;-79.318;2023-03-20T03:01:20;100453.36;;;-0.45;45.37
64139;BME280;50435;43.700;-79.318;2023-03-20T03:03:54;100453.57;;;0.11;45.00
64139;BME280;50435;43.700;-79.318;2023-03-20T03:06:25;100454.73;;;0.27;44.54
64139;BME280;50435;43.700;-79.318;2023-03-20T03:08:58;100452.49;;;0.21;44.57
64139;BME280;50435;43.700;-79.318;2023-03-20T03:11:27;100452.21;;;0.17;44.94
64139;BME280;50435;43.700;-79.318;2023-03-20T03:13:55;100451.45;;;0.04;44.89
64139;BME280;50435;43.700;-79.318;2023-03-20T03:16:26;100450.94;;;0.24;44.64
64139;BME280;50435;43.700;-79.318;2023-03-20T03:19:02;100458.95;;;0.25;44.71
64139;BME280;50435;43.700;-79.318;2023-03-20T03:21:32;100448.79;;;0.11;44.93
64139;BME280;50435;43.700;-79.318;2023-03-20T03:24:02;100448.29;;;-1.13;44.63
64139;BME280;50435;43.700;-79.318;2023-03-20T03:26:34;100448.50;;;0.21;44.31
64139;BME280;50435;43.700;-79.318;2023-03-20T03:29:10;100445.75;;;-0.90;44.90
64139;BME280;50435;43.700;-79.318;2023-03-20T03:31:40;100445.43;;;0.12;44.75
64139;BME280;50435;43.700;-79.318;2023-03-20T03:34:11;100445.57;;;-0.40;44.77
64139;BME280;50435;43.700;-79.318;2023-03-20T03:36:45;100456.18;;;0.16;44.83
64139;BME280;50435;43.700;-79.318;2023-03-20T03:39:22;100458.60;;;-0.10;44.91
64139;BME280;50435;43.700;-79.318;2023-03-20T03:41:54;100457.81;;;0.33;45.11
64139;BME280;50435;43.700;-79.318;2023-03-20T03:44:33;100453.56;;;0.16;44.71
64139;BME280;50435;43.700;-79.318;2023-03-20T03:47:06;100459.44;;;-1.19;44.86
64139;BME280;50435;43.700;-79.318;2023-03-20T03:49:38;100447.10;;;-0.02;44.98
64139;BME280;50435;43.700;-79.318;2023-03-20T03:52:10;100454.42;;;-0.46;44.74
64139;BME280;50435;43.700;-79.318;2023-03-20T03:54:43;100457.83;;;-0.03;45.21
64139;BME280;50435;43.700;-79.318;2023-03-20T03:57:13;100456.31;;;0.29;44.84
64139;BME280;50435;43.700;-79.318;2023-03-20T03:59:46;100448.72;;;0.07;44.93
64139;BME280;50435;43.700;-79.318;2023-03-20T04:02:15;100448.31;;;0.00;44.52
64139;BME280;50435;43.700;-79.318;2023-03-20T04:04:47;100446.25;;;0.02;44.73
64139;BME280;50435;43.700;-79.318;2023-03-20T04:07:15;100456.28;;;0.14;44.82
64139;BME280;50435;43.700;-79.318;2023-03-20T04:09:42;100447.06;;;0.01;45.05
64139;BME280;50435;43.700;-79.318;2023-03-20T04:12:30;100453.75;;;-0.74;44.68
64139;BME280;50435;43.700;-79.318;2023-03-20T04:14:58;100449.20;;;-0.41;44.86
64139;BME280;50435;43.700;-79.318;2023-03-20T04:17:25;100449.76;;;0.50;44.74
64139;BME280;50435;43.700;-79.318;2023-03-20T04:19:53;100444.58;;;0.02;44.69
64139;BME280;50435;43.700;-79.318;2023-03-20T04:22:20;100444.43;;;-0.40;45.29
64139;BME280;50435;43.700;-79.318;2023-03-20T04:24:48;100445.49;;;-0.02;44.72
64139;BME280;50435;43.700;-79.318;2023-03-20T04:27:16;100452.59;;;0.02;44.87
64139;BME280;50435;43.700;-79.318;2023-03-20T04:29:43;100445.21;;;-0.16;44.82
64139;BME280;50435;43.700;-79.318;2023-03-20T04:32:10;100441.18;;;-0.42;44.60
64139;BME280;50435;43.700;-79.318;2023-03-20T04:34:38;100442.76;;;0.15;44.48
64139;BME280;50435;43.700;-79.318;2023-03-20T04:37:05;100441.15;;;-0.70;44.80
64139;BME280;50435;43.700;-79.318;2023-03-20T04:39:33;100435.34;;;-0.13;44.91
64139;BME280;50435;43.700;-79.318;2023-03-20T04:42:00;100443.05;;;-0.98;45.09
64139;BME280;50435;43.700;-79.318;2023-03-20T04:44:28;100441.52;;;0.01;44.70
64139;BME280;50435;43.700;-79.318;2023-03-20T04:46:55;100444.30;;;-0.11;44.85
64139;BME280;50435;43.700;-79.318;2023-03-20T04:49:23;100441.55;;;-0.01;45.00
64139;BME280;50435;43.700;-79.318;2023-03-20T04:51:50;100445.57;;;0.00;44.66
64139;BME280;50435;43.700;-79.318;2023-03-20T04:54:18;100444.70;;;0.01;44.90
64139;BME280;50435;43.700;-79.318;2023-03-20T04:56:46;100437.17;;;0.01;44.75
64139;BME280;50435;43.700;-79.318;2023-03-20T04:59:13;100452.46;;;-0.13;44.56
64139;BME280;50435;43.700;-79.318;2023-03-20T05:01:40;100449.88;;;-0.15;44.82
64139;BME280;50435;43.700;-79.318;2023-03-20T05:04:08;100450.50;;;0.02;44.88
64139;BME280;50435;43.700;-79.318;2023-03-20T05:06:35;100452.83;;;-0.13;45.58
64139;BME280;50435;43.700;-79.318;2023-03-20T05:09:03;100457.39;;;-0.57;44.85
64139;BME280;50435;43.700;-79.318;2023-03-20T05:11:30;100450.61;;;-0.22;44.84
64139;BME280;50435;43.700;-79.318;2023-03-20T05:13:58;100459.20;;;-0.46;44.48
64139;BME280;50435;43.700;-79.318;2023-03-20T05:16:25;100456.56;;;0.04;44.48
64139;BME280;50435;43.700;-79.318;2023-03-20T05:18:53;100461.65;;;0.26;44.71
64139;BME280;50435;43.700;-79.318;2023-03-20T05:21:20;100457.82;;;-0.32;45.03
64139;BME280;50435;43.700;-79.318;2023-03-20T05:23:48;100462.92;;;0.10;44.80
64139;BME280;50435;43.700;-79.318;2023-03-20T05:26:15;100451.71;;;-0.42;44.69
64139;BME280;50435;43.700;-79.318;2023-03-20T05:28:42;100455.00;;;-0.20;44.52
64139;BME280;50435;43.700;-79.318;2023-03-20T05:31:10;100454.68;;;-0.15;44.52
64139;BME280;50435;43.700;-79.318;2023-03-20T05:33:37;100460.61;;;-0.27;44.56
64139;BME280;50435;43.700;-79.318;2023-03-20T05:36:05;100458.47;;;-0.32;44.64
64139;BME280;50435;43.700;-79.318;2023-03-20T05:38:33;100448.28;;;-0.16;44.45
64139;BME280;50435;43.700;-79.318;2023-03-20T05:41:00;100455.00;;;-0.94;44.15
64139;BME280;50435;43.700;-79.318;2023-03-20T05:43:27;100458.40;;;-0.12;44.44
64139;BME280;50435;43.700;-79.318;2023-03-20T05:45:55;100460.93;;;-0.21;44.31
64139;BME280;50435;43.700;-79.318;2023-03-20T05:48:22;100462.63;;;-0.24;44.34
64139;BME280;50435;43.700;-79.318;2023-03-20T05:50:50;100454.22;;;0.41;44.43
64139;BME280;50435;43.700;-79.318;2023-03-20T05:53:17;100459.97;;;-0.32;44.71
64139;BME280;50435;43.700;-79.318;2023-03-20T05:55:44;100466.05;;;-0.22;44.52
64139;BME280;50435;43.700;-79.318;2023-03-20T05:58:12;100466.76;;;-0.66;44.61
64139;BME280;50435;43.700;-79.318;2023-03-20T06:00:39;100472.84;;;-0.19;44.53
64139;BME280;50435;43.700;-79.318;2023-03-20T06:03:06;100468.31;;;-0.76;44.81
64139;BME280;50435;43.700;-79.318;2023-03-20T06:05:34;100475.29;;;-0.36;44.43
64139;BME280;50435;43.700;-79.318;2023-03-20T06:08:03;100478.77;;;-1.23;44.27
64139;BME280;50435;43.700;-79.318;2023-03-20T06:10:31;100475.26;;;-0.29;44.26
64139;BME280;50435;43.700;-79.318;2023-03-20T06:12:59;100476.70;;;-1.10;44.40
64139;BME280;50435;43.700;-79.318;2023-03-20T06:15:27;100478.57;;;-0.26;44.31
64139;BME280;50435;43.700;-79.318;2023-03-20T06:17:55;100483.29;;;0.09;44.40
64139;BME280;50435;43.700;-79.318;2023-03-20T06:20:22;100480.30;;;-0.37;44.42
64139;BME280;50435;43.700;-79.318;2023-03-20T06:22:50;100480.64;;;0.20;44.49
64139;BME280;50435;43.700;-79.318;2023-03-20T06:25:17;100482.17;;;-0.14;44.38
64139;BME280;50435;43.700;-79.318;2023-03-20T06:27:45;100477.32;;;-0.14;44.71
64139;BME280;50435;43.700;-79.318;2023-03-20T06:30:14;100480.38;;;-0.40;44.78
64139;BME280;50435;43.700;-79.318;2023-03-20T06:32:42;100481.86;;;-0.05;44.71
64139;BME280;50435;43.700;-79.318;2023-03-20T06:35:11;100479.54;;;-0.81;44.37
64139;BME280;50435;43.700;-79.318;2023-03-20T06:37:39;100478.64;;;-0.17;44.29
64139;BME280;50435;43.700;-79.318;2023-03-20T06:40:08;100480.40;;;-1.19;44.33
64139;BME280;50435;43.700;-79.318;2023-03-20T06:42:35;100481.02;;;-0.07;44.55
64139;BME280;50435;43.700;-79.318;2023-03-20T06:45:03;100482.16;;;-1.28;44.50
64139;BME280;50435;43.700;-79.318;2023-03-20T06:47:31;100480.16;;;-0.39;44.64
64139;BME280;50435;43.700;-79.318;2023-03-20T06:49:58;100479.36;;;-0.73;44.53
64139;BME280;50435;43.700;-79.318;2023-03-20T06:52:26;100482.12;;;-0.31;44.67
64139;BME280;50435;43.700;-79.318;2023-03-20T06:54:53;100483.26;;;-0.59;44.97
64139;BME280;50435;43.700;-79.318;2023-03-20T06:57:20;100480.09;;;-0.53;44.73
64139;BME280;50435;43.700;-79.318;2023-03-20T06:59:48;100479.76;;;-0.21;44.49
64139;BME280;50435;43.700;-79.318;2023-03-20T07:02:15;100480.42;;;-0.81;44.67
64139;BME280;50435;43.700;-79.318;2023-03-20T07:04:42;100489.86;;;0.03;44.57
64139;BME280;50435;43.700;-79.318;2023-03-20T07:07:10;100485.29;;;-0.36;44.57
64139;BME280;50435;43.700;-79.318;2023-03-20T07:09:38;100484.23;;;-0.15;44.85
64139;BME280;50435;43.700;-79.318;2023-03-20T07:12:09;100478.23;;;-1.21;44.54
64139;BME280;50435;43.700;-79.318;2023-03-20T07:14:37;100476.04;;;-0.51;44.65
64139;BME280;50435;43.700;-79.318;2023-03-20T07:17:05;100484.71;;;-1.03;44.62
64139;BME280;50435;43.700;-79.318;2023-03-20T07:19:32;100476.65;;;-0.43;44.49
64139;BME280;50435;43.700;-79.318;2023-03-20T07:22:01;100483.96;;;-1.52;44.89
64139;BME280;50435;43.700;-79.318;2023-03-20T07:24:30;100486.52;;;-0.46;44.61
64139;BME280;50435;43.700;-79.318;2023-03-20T07:26:58;100489.33;;;-0.79;44.61
64139;BME280;50435;43.700;-79.318;2023-03-20T07:29:25;100486.01;;;-0.59;44.62
64139;BME280;50435;43.700;-79.318;2023-03-20T07:31:53;100484.34;;;-0.22;44.49
64139;BME280;50435;43.700;-79.318;2023-03-20T07:34:21;100489.17;;;-0.58;44.58
64139;BME280;50435;43.700;-79.318;2023-03-20T07:36:49;100490.79;;;-0.58;44.57
64139;BME280;50435;43.700;-79.318;2023-03-20T07:39:17;100482.97;;;-0.62;44.75
64139;BME280;50435;43.700;-79.318;2023-03-20T07:41:44;100491.76;;;0.01;44.77
64139;BME280;50435;43.700;-79.318;2023-03-20T07:44:11;100486.67;;;-1.00;44.24
64139;BME280;50435;43.700;-79.318;2023-03-20T07:46:39;100481.76;;;-0.59;44.29
64139;BME280;50435;43.700;-79.318;2023-03-20T07:49:06;100479.60;;;-0.97;44.46
64139;BME280;50435;43.700;-79.318;2023-03-20T07:51:34;100482.18;;;0.02;44.57
64139;BME280;50435;43.700;-79.318;2023-03-20T07:54:01;100476.11;;;-1.57;44.67
64139;BME280;50435;43.700;-79.318;2023-03-20T07:56:28;100472.08;;;-0.37;44.44
64139;BME280;50435;43.700;-79.318;2023-03-20T07:58:56;100471.55;;;-0.21;44.59
64139;BME280;50435;43.700;-79.318;2023-03-20T08:01:23;100473.60;;;-0.71;44.69
64139;BME280;50435;43.700;-79.318;2023-03-20T08:03:51;100475.71;;;-0.18;44.48
64139;BME280;50435;43.700;-79.318;2023-03-20T08:06:18;100475.59;;;-0.71;44.72
64139;BME280;50435;43.700;-79.318;2023-03-20T08:08:45;100473.46;;;-0.47;44.69
64139;BME280;50435;43.700;-79.318;2023-03-20T08:11:13;100481.29;;;-0.83;44.63
64139;BME280;50435;43.700;-79.318;2023-03-20T08:13:40;100479.49;;;-0.74;44.81
64139;BME280;50435;43.700;-79.318;2023-03-20T08:16:08;100475.28;;;-1.00;44.44
64139;BME280;50435;43.700;-79.318;2023-03-20T08:18:36;100475.83;;;-0.68;44.40
64139;BME280;50435;43.700;-79.318;2023-03-20T08:21:03;100475.74;;;-1.91;44.59
64139;BME280;50435;43.700;-79.318;2023-03-20T08:23:31;100480.40;;;-0.68;44.30
64139;BME280;50435;43.700;-79.318;2023-03-20T08:25:59;100476.17;;;-1.14;44.34
64139;BME280;50435;43.700;-79.318;2023-03-20T08:28:26;100481.44;;;-0.81;44.29
64139;BME280;50435;43.700;-79.318;2023-03-20T08:30:53;100479.45;;;-0.76;44.27
64139;BME280;50435;43.700;-79.318;2023-03-20T08:33:21;100484.19;;;-0.60;44.35
64139;BME280;50435;43.700;-79.318;2023-03-20T08:35:55;100482.98;;;-0.68;44.37
64139;BME280;50435;43.700;-79.318;2023-03-20T08:38:23;100479.37;;;-0.67;44.39
64139;BME280;50435;43.700;-79.318;2023-03-20T08:40:51;100483.78;;;-0.47;44.17
64139;BME280;50435;43.700;-79.318;2023-03-20T08:43:19;100483.79;;;-0.96;44.57
64139;BME280;50435;43.700;-79.318;2023-03-20T08:45:47;100485.95;;;-0.64;44.11
64139;BME280;50435;43.700;-79.318;2023-03-20T08:48:15;100493.14;;;-0.90;44.77
64139;BME280;50435;43.700;-79.318;2023-03-20T08:50:42;100491.77;;;-0.99;44.74
64139;BME280;50435;43.700;-79.318;2023-03-20T08:53:09;100488.26;;;-1.19;44.88
64139;BME280;50435;43.700;-79.318;2023-03-20T08:55:37;100493.65;;;-1.05;45.08
64139;BME280;50435;43.700;-79.318;2023-03-20T08:58:05;100491.28;;;-1.31;44.24
64139;BME280;50435;43.700;-79.318;2023-03-20T09:00:32;100496.86;;;-0.86;44.38
64139;BME280;50435;43.700;-79.318;2023-03-20T09:03:00;100491.16;;;-1.30;44.44
64139;BME280;50435;43.700;-79.318;2023-03-20T09:05:27;100496.12;;;-0.93;44.32
64139;BME280;50435;43.700;-79.318;2023-03-20T09:07:54;100490.58;;;-0.44;44.51
64139;BME280;50435;43.700;-79.318;2023-03-20T09:10:22;100494.28;;;-0.54;44.33
64139;BME280;50435;43.700;-79.318;2023-03-20T09:12:49;100497.49;;;-0.90;44.63
64139;BME280;50435;43.700;-79.318;2023-03-20T09:15:17;100498.19;;;-0.96;44.78
64139;BME280;50435;43.700;-79.318;2023-03-20T09:17:44;100500.41;;;-0.66;44.69
64139;BME280;50435;43.700;-79.318;2023-03-20T09:20:12;100500.42;;;-1.05;44.96
64139;BME280;50435;43.700;-79.318;2023-03-20T09:22:39;100506.45;;;-0.45;44.64
64139;BME280;50435;43.700;-79.318;2023-03-20T09:25:07;100503.87;;;-1.45;44.36
64139;BME280;50435;43.700;-79.318;2023-03-20T09:27:35;100510.66;;;-0.76;44.67
64139;BME280;50435;43.700;-79.318;2023-03-20T09:30:02;100512.26;;;-1.82;44.46
64139;BME280;50435;43.700;-79.318;2023-03-20T09:32:30;100514.99;;;-0.70;44.08
64139;BME280;50435;43.700;-79.318;2023-03-20T09:34:57;100518.35;;;-1.07;44.52
64139;BME280;50435;43.700;-79.318;2023-03-20T09:37:25;100519.22;;;-0.97;44.34
64139;BME280;50435;43.700;-79.318;2023-03-20T09:39:54;100528.64;;;-0.99;44.66
64139;BME280;50435;43.700;-79.318;2023-03-20T09:42:30;100527.54;;;-0.90;44.68
64139;BME280;50435;43.700;-79.318;2023-03-20T09:45:05;100527.54;;;-1.47;44.67
64139;BME280;50435;43.700;-79.318;2023-03-20T09:47:42;100530.82;;;-0.73;45.03
64139;BME280;50435;43.700;-79.318;2023-03-20T09:50:19;100531.18;;;-0.94;45.11
64139;BME280;50435;43.700;-79.318;2023-03-20T09:52:56;100530.76;;;-1.14;44.88
64139;BME280;50435;43.700;-79.318;2023-03-20T09:55:31;100536.71;;;-1.00;44.66
64139;BME280;50435;43.700;-79.318;2023-03-20T09:58:05;100532.73;;;-1.65;44.81
64139;BME280;50435;43.700;-79.318;2023-03-20T10:00:37;100537.85;;;-0.58;44.65
64139;BME280;50435;43.700;-79.318;2023-03-20T10:03:16;100539.11;;;-1.48;44.81
64139;BME280;50435;43.700;-79.318;2023-03-20T10:05:46;100538.02;;;-0.48;44.54
64139;BME280;50435;43.700;-79.318;2023-03-20T10:08:19;100535.51;;;-0.98;44.52
64139;BME280;50435;43.700;-79.318;2023-03-20T10:10:51;100538.67;;;-0.52;44.85
64139;BME280;50435;43.700;-79.318;2023-03-20T10:13:33;100543.65;;;-0.59;44.76
64139;BME280;50435;43.700;-79.318;2023-03-20T10:16:11;100540.07;;;-2.16;45.07
64139;BME280;50435;43.700;-79.318;2023-03-20T10:18:48;100543.67;;;-0.42;44.38
64139;BME280;50435;43.700;-79.318;2023-03-20T10:21:22;100543.16;;;-0.74;44.63
64139;BME280;50435;43.700;-79.318;2023-03-20T10:23:59;100545.33;;;-0.66;44.68
64139;BME280;50435;43.700;-79.318;2023-03-20T10:26:31;100547.10;;;-1.02;44.39
64139;BME280;50435;43.700;-79.318;2023-03-20T10:29:02;100551.94;;;-2.16;45.05
64139;BME280;50435;43.700;-79.318;2023-03-20T10:31:42;100558.12;;;-0.60;44.95
64139;BME280;50435;43.700;-79.318;2023-03-20T10:34:21;100559.52;;;-1.60;44.97
64139;BME280;50435;43.700;-79.318;2023-03-20T10:37:06;100552.03;;;-0.65;44.75
64139;BME280;50435;43.700;-79.318;2023-03-20T10:39:45;100556.86;;;-0.57;44.86
64139;BME280;50435;43.700;-79.318;2023-03-20T10:42:19;100558.45;;;-1.44;45.13
64139;BME280;50435;43.700;-79.318;2023-03-20T10:44:52;100555.53;;;-0.86;45.36
64139;BME280;50435;43.700;-79.318;2023-03-20T10:47:24;100553.00;;;-0.86;45.24
64139;BME280;50435;43.700;-79.318;2023-03-20T10:49:55;100554.67;;;-0.65;45.24
64139;BME280;50435;43.700;-79.318;2023-03-20T10:52:27;100558.63;;;-1.25;45.21
64139;BME280;50435;43.700;-79.318;2023-03-20T10:54:57;100557.41;;;-0.86;45.28
64139;BME280;50435;43.700;-79.318;2023-03-20T10:57:29;100564.88;;;-1.08;45.38
64139;BME280;50435;43.700;-79.318;2023-03-20T10:59:58;100561.94;;;-1.43;45.70
64139;BME280;50435;43.700;-79.318;2023-03-20T11:02:28;100563.93;;;-1.30;45.31
64139;BME280;50435;43.700;-79.318;2023-03-20T11:04:58;100568.45;;;-0.96;45.39
64139;BME280;50435;43.700;-79.318;2023-03-20T11:07:28;100570.84;;;-1.49;45.30
64139;BME280;50435;43.700;-79.318;2023-03-20T11:10:08;100566.67;;;-1.61;44.93
64139;BME280;50435;43.700;-79.318;2023-03-20T11:12:38;100574.15;;;-0.98;45.16
64139;BME280;50435;43.700;-79.318;2023-03-20T11:15:19;100577.61;;;-1.86;45.33
64139;BME280;50435;43.700;-79.318;2023-03-20T11:17:53;100575.47;;;-0.86;45.22
64139;BME280;50435;43.700;-79.318;2023-03-20T11:20:22;100583.19;;;-0.84;45.46
64139;BME280;50435;43.700;-79.318;2023-03-20T11:22:55;100577.38;;;-0.85;45.02
64139;BME280;50435;43.700;-79.318;2023-03-20T11:25:29;100586.96;;;-1.15;45.29
64139;BME280;50435;43.700;-79.318;2023-03-20T11:28:04;100590.55;;;-1.41;45.43
64139;BME280;50435;43.700;-79.318;2023-03-20T11:30:44;100592.36;;;-1.12;45.33
64139;BME280;50435;43.700;-79.318;2023-03-20T11:33:13;100597.62;;;-1.30;45.47
64139;BME280;50435;43.700;-79.318;2023-03-20T11:35:44;100601.91;;;-0.87;45.43
64139;BME280;50435;43.700;-79.318;2023-03-20T11:38:15;100596.34;;;-1.53;45.82
64139;BME280;50435;43.700;-79.318;2023-03-20T11:40:43;100600.71;;;-1.14;45.39
64139;BME280;50435;43.700;-79.318;2023-03-20T11:43:13;100599.70;;;-1.79;45.68
64139;BME280;50435;43.700;-79.318;2023-03-20T11:45:42;100602.25;;;-1.38;45.36
64139;BME280;50435;43.700;-79.318;2023-03-20T11:48:17;100602.59;;;-1.27;45.51
64139;BME280;50435;43.700;-79.318;2023-03-20T11:50:48;100616.25;;;-0.87;45.58
64139;BME280;50435;43.700;-79.318;2023-03-20T11:53:24;100611.84;;;-1.23;45.92
64139;BME280;50435;43.700;-79.318;2023-03-20T11:56:09;100617.13;;;-1.45;45.94
64139;BME280;50435;43.700;-79.318;2023-03-20T11:58:48;100620.97;;;-0.93;45.71
64139;BME280;50435;43.700;-79.318;2023-03-20T12:01:20;100620.69;;;-1.32;45.55
64139;BME280;50435;43.700;-79.318;2023-03-20T12:03:51;100620.33;;;-1.17;45.71
64139;BME280;50435;43.700;-79.318;2023-03-20T12:06:20;100616.58;;;-1.18;45.94
64139;BME280;50435;43.700;-79.318;2023-03-20T12:08:54;100619.34;;;-1.20;45.84
64139;BME280;50435;43.700;-79.318;2023-03-20T12:11:35;100625.45;;;-1.19;45.50
64139;BME280;50435;43.700;-79.318;2023-03-20T12:14:10;100622.05;;;-1.19;46.15
64139;BME280;50435;43.700;-79.318;2023-03-20T12:16:41;100626.04;;;-0.96;45.80
64139;BME280;50435;43.700;-79.318;2023-03-20T12:19:11;100626.79;;;-1.52;46.39
64139;BME280;50435;43.700;-79.318;2023-03-20T12:21:45;100631.10;;;-0.98;45.72
64139;BME280;50435;43.700;-79.318;2023-03-20T12:24:22;100630.56;;;-1.46;45.70
64139;BME280;50435;43.700;-79.318;2023-03-20T12:26:57;100632.65;;;-1.14;45.70
64139;BME280;50435;43.700;-79.318;2023-03-20T12:29:30;100629.83;;;-1.01;46.02
64139;BME280;50435;43.700;-79.318;2023-03-20T12:32:03;100633.64;;;-1.66;45.75
64139;BME280;50435;43.700;-79.318;2023-03-20T12:34:35;100632.07;;;-1.23;45.80
64139;BME280;50435;43.700;-79.318;2023-03-20T12:37:08;100634.18;;;-2.34;45.39
64139;BME280;50435;43.700;-79.318;2023-03-20T12:39:38;100639.02;;;-0.85;44.98
64139;BME280;50435;43.700;-79.318;2023-03-20T12:42:17;100643.55;;;-1.37;45.19
64139;BME280;50435;43.700;-79.318;2023-03-20T12:44:51;100645.61;;;-1.07;45.38
64139;BME280;50435;43.700;-79.318;2023-03-20T12:48:02;100647.89;;;-1.59;45.56
64139;BME280;50435;43.700;-79.318;2023-03-20T12:50:32;100648.08;;;-0.81;44.98
64139;BME280;50435;43.700;-79.318;2023-03-20T12:53:14;100646.37;;;-1.72;44.38